createdAt,value
2023-01-22T00:03:07.640Z,2.60
2023-01-22T00:08:09.708Z,2.50
2023-01-22T00:13:11.619Z,2.20
2023-01-22T00:18:15.546Z,2.33
2023-01-22T00:23:17.748Z,2.10
2023-01-22T00:28:19.792Z,2.23
2023-01-22T00:33:23.080Z,2.40
2023-01-22T00:38:25.147Z,2.50
2023-01-22T00:43:27.455Z,2.20
2023-01-22T00:48:31.058Z,2.10
2023-01-22T00:53:33.176Z,2.00
2023-01-22T00:58:35.524Z,1.90
2023-01-22T01:03:38.904Z,2.07
2023-01-22T01:08:43.163Z,2.23
2023-01-22T01:13:45.547Z,2.20
2023-01-22T01:18:49.271Z,2.10
2023-01-22T01:23:51.020Z,2.47
2023-01-22T01:28:52.965Z,2.17
2023-01-22T01:33:56.555Z,2.70
2023-01-22T01:38:58.637Z,2.67
2023-01-22T01:44:09.216Z,2.80
2023-01-22T01:49:18.793Z,2.60
2023-01-22T01:54:21.163Z,2.57
2023-01-22T01:59:24.081Z,2.70
2023-01-22T02:04:28.432Z,2.73
2023-01-22T02:09:31.021Z,2.60
2023-01-22T02:14:35.038Z,2.73
2023-01-22T02:19:38.471Z,2.70
2023-01-22T02:24:42.013Z,2.47
2023-01-22T02:29:44.171Z,2.43
2023-01-22T02:34:46.262Z,3.23
2023-01-22T02:39:49.331Z,3.03
2023-01-22T02:44:51.702Z,2.53
2023-01-22T02:49:53.956Z,2.57
2023-01-22T02:54:57.260Z,2.43
2023-01-22T02:59:59.554Z,2.23
2023-01-22T03:05:01.631Z,2.37
2023-01-22T03:10:05.860Z,2.67
2023-01-22T03:15:09.265Z,2.40
2023-01-22T03:20:11.905Z,3.13
2023-01-22T03:25:15.417Z,2.40
2023-01-22T03:30:18.448Z,2.90
2023-01-22T03:35:20.591Z,2.77
2023-01-22T03:40:24.212Z,3.17
2023-01-22T03:45:27.858Z,3.30
2023-01-22T03:50:30.494Z,2.60
2023-01-22T03:55:33.989Z,2.97
2023-01-22T04:00:36.051Z,2.37
2023-01-22T04:05:37.742Z,2.57
2023-01-22T04:10:42.440Z,2.43
2023-01-22T04:15:44.846Z,2.37
2023-01-22T04:20:48.535Z,1.97
2023-01-22T04:25:52.719Z,2.60
2023-01-22T04:30:55.659Z,1.97
2023-01-22T04:35:57.812Z,2.27
2023-01-22T04:41:01.426Z,2.53
2023-01-22T04:46:05.623Z,2.53
2023-01-22T04:51:07.713Z,2.57
2023-01-22T04:56:11.393Z,2.47
2023-01-22T05:01:13.492Z,3.20
2023-01-22T05:06:15.193Z,3.00
2023-01-22T05:11:18.803Z,2.67
2023-01-22T05:16:21.110Z,2.97
2023-01-22T05:21:23.432Z,3.00
2023-01-22T05:26:26.885Z,2.80
2023-01-22T05:31:29.017Z,2.67
2023-01-22T05:36:31.221Z,2.70
2023-01-22T05:41:34.890Z,2.93
2023-01-22T05:46:37.046Z,3.03
2023-01-22T05:51:39.112Z,3.53
2023-01-22T05:56:42.793Z,3.30
2023-01-22T06:01:44.959Z,3.20
2023-01-22T06:06:47.029Z,3.40
2023-01-22T06:11:50.328Z,3.20
2023-01-22T06:16:52.489Z,3.13
2023-01-22T06:21:55.042Z,3.87
2023-01-22T06:26:58.529Z,3.27
2023-01-22T06:32:00.715Z,3.70
2023-01-22T06:37:02.801Z,3.33
2023-01-22T06:42:06.505Z,4.57
2023-01-22T06:47:08.820Z,3.87
2023-01-22T06:52:11.083Z,3.43
2023-01-22T06:57:14.556Z,3.80
2023-01-22T07:02:17.732Z,3.57
2023-01-22T07:07:19.996Z,4.30
2023-01-22T07:12:23.425Z,3.47
2023-01-22T07:17:25.543Z,3.30
2023-01-22T07:22:27.398Z,3.60
2023-01-22T07:27:30.539Z,3.40
2023-01-22T07:32:32.358Z,3.80
2023-01-22T07:37:34.557Z,3.97
2023-01-22T07:42:38.873Z,3.57
2023-01-22T07:47:42.340Z,3.83
2023-01-22T07:52:45.481Z,4.50
2023-01-22T07:57:49.092Z,4.33
2023-01-22T08:02:51.422Z,4.10
2023-01-22T08:07:53.622Z,5.03
2023-01-22T08:12:57.191Z,5.47
2023-01-22T08:17:59.458Z,5.23
2023-01-22T08:23:01.691Z,4.43
2023-01-22T08:28:06.324Z,4.67
2023-01-22T08:33:08.542Z,4.23
2023-01-22T08:38:10.309Z,3.87
2023-01-22T08:43:14.072Z,4.97
2023-01-22T08:48:16.703Z,4.50
2023-01-22T08:53:18.879Z,4.53
2023-01-22T08:58:22.380Z,3.10
2023-01-22T09:03:24.864Z,4.13
2023-01-22T09:08:26.765Z,3.57
2023-01-22T09:13:30.437Z,3.00
2023-01-22T09:18:32.230Z,3.70
2023-01-22T09:23:34.187Z,3.77
2023-01-22T09:28:37.528Z,3.60
2023-01-22T09:33:39.638Z,3.63
2023-01-22T09:38:42.239Z,3.93
2023-01-22T09:43:51.191Z,4.20
2023-01-22T09:48:57.281Z,4.20
2023-01-22T09:54:03.526Z,3.83
2023-01-22T09:59:13.763Z,4.03
2023-01-22T10:04:27.072Z,4.30
2023-01-22T10:09:31.306Z,4.47
2023-01-22T10:14:34.396Z,4.13
2023-01-22T10:19:42.746Z,4.97
2023-01-22T10:24:45.098Z,4.80
2023-01-22T10:29:58.038Z,4.53
2023-01-22T10:35:02.463Z,4.67
2023-01-22T10:40:05.600Z,5.67
2023-01-22T10:45:19.236Z,4.80
2023-01-22T10:50:22.136Z,5.20
2023-01-22T10:55:27.394Z,5.90
2023-01-22T11:00:46.718Z,5.67
2023-01-22T11:05:58.211Z,4.80
2023-01-22T11:11:04.450Z,5.17
2023-01-22T11:16:13.048Z,5.17
2023-01-22T11:21:16.810Z,4.97
2023-01-22T11:26:29.815Z,4.93
2023-01-22T11:31:53.091Z,4.53
2023-01-22T11:37:00.418Z,3.87
2023-01-22T11:42:13.706Z,5.27
2023-01-22T11:47:48.709Z,4.73
2023-01-22T11:52:59.756Z,4.80
2023-01-22T11:58:09.424Z,4.40
2023-01-22T12:03:47.306Z,4.00
2023-01-22T12:08:57.727Z,4.27
2023-01-22T12:14:35.383Z,4.43
2023-01-22T12:20:01.773Z,4.97
2023-01-22T12:25:14.060Z,4.77
2023-01-22T12:30:22.458Z,4.27
2023-01-22T12:35:29.322Z,4.47
2023-01-22T12:40:59.497Z,4.20
2023-01-22T12:46:10.225Z,4.77
2023-01-22T12:51:26.326Z,4.83
2023-01-22T12:56:30.848Z,4.57
2023-01-22T13:01:34.985Z,4.43
2023-01-22T13:06:40.260Z,4.40
2023-01-22T13:11:42.011Z,5.00
2023-01-22T13:16:52.268Z,5.30
2023-01-22T13:21:59.127Z,4.37
2023-01-22T13:27:03.470Z,4.53
2023-01-22T13:32:15.958Z,4.87
2023-01-22T13:37:22.858Z,5.27
2023-01-22T13:42:26.375Z,5.60
2023-01-22T13:47:31.951Z,5.50
2023-01-22T13:52:35.496Z,5.53
2023-01-22T13:57:44.827Z,5.63
2023-01-22T14:02:47.178Z,5.50
2023-01-22T14:07:51.945Z,5.60
2023-01-22T14:13:00.134Z,5.43
2023-01-22T14:18:09.715Z,5.37
2023-01-22T14:23:13.440Z,6.17
2023-01-22T14:28:16.122Z,6.07
2023-01-22T14:33:24.005Z,6.33
2023-01-22T14:38:28.463Z,6.13
2023-01-22T14:43:30.287Z,5.70
2023-01-22T14:48:32.462Z,6.70
2023-01-22T14:53:35.990Z,5.90
2023-01-22T14:58:38.329Z,6.00
2023-01-22T15:03:40.044Z,7.73
2023-01-22T15:08:43.780Z,6.33
2023-01-22T15:13:45.448Z,6.57
2023-01-22T15:18:47.505Z,7.37
2023-01-22T15:23:51.471Z,6.07
2023-01-22T15:28:54.937Z,7.60
2023-01-22T15:33:57.134Z,6.40
2023-01-22T15:39:00.674Z,7.20
2023-01-22T15:44:04.966Z,6.47
2023-01-22T15:49:08.375Z,7.10
2023-01-22T15:54:15.331Z,7.80
2023-01-22T15:59:17.867Z,7.20
2023-01-22T16:04:19.603Z,7.53
2023-01-22T16:09:22.726Z,8.07
2023-01-22T16:14:24.792Z,8.13
2023-01-22T16:19:26.741Z,7.03
2023-01-22T16:24:30.114Z,7.50
2023-01-22T16:29:32.155Z,7.10
2023-01-22T16:34:34.347Z,10.67
2023-01-22T16:39:37.671Z,7.33
2023-01-22T16:44:39.504Z,10.13
2023-01-22T16:49:41.245Z,10.60
2023-01-22T16:54:44.669Z,8.33
2023-01-22T16:59:48.395Z,8.37
2023-01-22T17:04:50.347Z,8.03
2023-01-22T17:09:53.998Z,9.17
2023-01-22T17:14:56.269Z,22.20
2023-01-22T17:20:00.285Z,7.80
2023-01-22T17:25:05.447Z,8.00
2023-01-22T17:30:08.593Z,8.57
2023-01-22T17:35:10.776Z,8.53
2023-01-22T17:40:14.233Z,8.00
2023-01-22T17:45:15.989Z,8.63
2023-01-22T17:50:18.024Z,8.83
2023-01-22T17:55:21.680Z,8.20
2023-01-22T18:00:24.486Z,8.67
2023-01-22T18:05:26.494Z,7.53
2023-01-22T18:10:30.332Z,8.27
2023-01-22T18:15:32.584Z,10.43
2023-01-22T18:20:34.383Z,9.17
2023-01-22T18:25:42.487Z,8.73
2023-01-22T18:30:46.705Z,8.73
2023-01-22T18:35:51.036Z,9.60
2023-01-22T18:40:55.039Z,8.93
2023-01-22T18:46:02.935Z,9.00
2023-01-22T18:51:06.394Z,9.10
2023-01-22T18:56:11.655Z,8.20
2023-01-22T19:01:16.195Z,9.47
2023-01-22T19:06:20.811Z,6.97
2023-01-22T19:11:24.715Z,8.00
2023-01-22T19:16:28.323Z,7.40
2023-01-22T19:21:30.852Z,8.57
2023-01-22T19:26:35.767Z,6.20
2023-01-22T19:31:39.281Z,8.00
2023-01-22T19:36:41.673Z,6.67
2023-01-22T19:41:44.944Z,6.97
2023-01-22T19:46:47.512Z,7.73
2023-01-22T19:51:50.279Z,7.03
2023-01-22T19:56:54.621Z,7.77
2023-01-22T20:01:57.556Z,7.23
2023-01-22T20:07:02.165Z,6.57
2023-01-22T20:12:06.895Z,7.07
2023-01-22T20:17:09.344Z,7.27
2023-01-22T20:22:11.940Z,6.63
2023-01-22T20:27:16.272Z,7.27
2023-01-22T20:32:18.582Z,7.37
2023-01-22T20:37:20.601Z,7.23
2023-01-22T20:42:24.570Z,7.37
2023-01-22T20:47:27.156Z,7.53
2023-01-22T20:52:29.143Z,6.90
2023-01-22T20:57:32.945Z,6.30
2023-01-22T21:02:35.272Z,23.77
2023-01-22T21:07:37.204Z,6.97
2023-01-22T21:12:42.095Z,6.90
2023-01-22T21:17:44.296Z,7.43
2023-01-22T21:22:46.810Z,7.53
2023-01-22T21:27:51.233Z,7.53
2023-01-22T21:32:53.309Z,7.07
2023-01-22T21:37:55.676Z,8.10
2023-01-22T21:42:59.273Z,8.87
2023-01-22T21:48:01.959Z,7.60
2023-01-22T21:53:04.428Z,8.00
2023-01-22T21:58:09.048Z,7.37
2023-01-22T22:03:11.461Z,8.67
2023-01-22T22:08:13.169Z,8.23
2023-01-22T22:13:16.670Z,7.97
2023-01-22T22:18:18.604Z,8.83
2023-01-22T22:23:20.900Z,8.13
2023-01-22T22:28:24.681Z,8.37
2023-01-22T22:33:26.747Z,8.83
2023-01-22T22:38:28.963Z,8.20
2023-01-22T22:43:37.704Z,7.73
2023-01-22T22:48:39.941Z,7.17
2023-01-22T22:53:41.773Z,8.80
2023-01-22T22:58:45.552Z,8.20
2023-01-22T23:03:48.094Z,8.87
2023-01-22T23:08:52.941Z,8.93
2023-01-22T23:13:57.222Z,8.77
2023-01-22T23:19:01.018Z,7.97
2023-01-22T23:24:03.350Z,7.90
2023-01-22T23:29:10.627Z,8.33
2023-01-22T23:34:16.730Z,7.77
2023-01-22T23:39:20.683Z,8.13
2023-01-22T23:44:24.357Z,9.03
2023-01-22T23:49:26.441Z,7.50
2023-01-22T23:54:28.578Z,7.73
2023-01-22T23:59:32.064Z,7.17
